Time;durP1;ratioP1;P1;durP2;ratioP2;P2;SDS_P1;SDS_P2;PMS_P1;PMS_P2;Temp;Humidity;BMP_temperature;BMP_pressure;BME280_temperature;BME280_humidity;BME280_pressure;Samples;Min_cycle;Max_cycle;Signal;HPM_P1;HPM_P2
2024/01/24 00:00:36;;;;;;;;;;;;;;;11.99;100.00;101305.59;5034779;28;19959;-72
2024/01/24 00:03:02;;;;;;;;;;;;;;;12.03;100.00;101298.56;5019241;28;19920;-72
2024/01/24 00:05:27;;;;;;;;;;;;;;;11.99;100.00;101302.97;5036794;28;19921;-73
2024/01/24 00:07:56;;;;;;;;;;;;;;;11.97;100.00;101286.38;5021018;28;20003;-72
2024/01/24 00:10:23;;;;;;;;;;;;;;;12.01;100.00;101298.59;5054225;28;20225;-71
2024/01/24 00:12:48;;;;;;;;;;;;;;;12.02;100.00;101297.69;5033983;28;19956;-68
2024/01/24 00:15:14;;;;;;;;;;;;;;;12.04;100.00;101311.69;5033458;28;19971;-68
2024/01/24 00:17:40;;;;;;;;;;;;;;;12.03;100.00;101316.97;5016314;28;20281;-68
2024/01/24 00:20:05;;;;;;;;;;;;;;;12.01;100.00;101316.97;5028173;28;19944;-68
2024/01/24 00:22:31;;;;;;;;;;;;;;;12.02;100.00;101318.69;5043180;28;19970;-68
2024/01/24 00:24:56;;;;;;;;;;;;;;;12.11;100.00;101325.63;5034099;28;19940;-68
2024/01/24 00:27:21;;;;;;;;;;;;;;;12.11;100.00;101323.88;5001820;28;20381;-69
2024/01/24 00:29:46;;;;;;;;;;;;;;;12.13;100.00;101314.22;5017097;28;19928;-68
2024/01/24 00:32:12;;;;;;;;;;;;;;;12.19;100.00;101299.28;5016827;28;19935;-69
2024/01/24 00:34:37;;;;;;;;;;;;;;;12.15;100.00;101271.28;5021867;28;19928;-71
2024/01/24 00:37:03;;;;;;;;;;;;;;;12.18;100.00;101285.25;5017676;28;20330;-72
2024/01/24 00:39:30;;;;;;;;;;;;;;;12.23;100.00;101269.47;5014454;28;19961;-72
2024/01/24 00:41:58;;;;;;;;;;;;;;;12.24;100.00;101285.19;5013633;28;20391;-71
2024/01/24 00:44:23;;;;;;;;;;;;;;;12.34;100.00;101290.34;5016805;28;19920;-72
2024/01/24 00:46:48;;;;;;;;;;;;;;;12.36;100.00;101278.91;5005506;28;19929;-72
2024/01/24 00:49:14;;;;;;;;;;;;;;;12.39;100.00;101284.13;5029064;28;20332;-72
2024/01/24 00:51:42;;;;;;;;;;;;;;;12.45;100.00;101280.56;5017201;28;20308;-72
2024/01/24 00:54:07;;;;;;;;;;;;;;;12.45;100.00;101278.78;5031862;28;19921;-72
2024/01/24 00:56:32;;;;;;;;;;;;;;;12.37;100.00;101290.28;5032764;28;19924;-73
2024/01/24 00:58:57;;;;;;;;;;;;;;;12.39;100.00;101289.41;5008281;28;19925;-72
2024/01/24 01:01:23;;;;;;;;;;;;;;;12.40;100.00;101280.63;5014786;28;19980;-71
2024/01/24 01:03:48;;;;;;;;;;;;;;;12.34;100.00;101287.72;5037707;28;20276;-72
2024/01/24 01:06:13;;;;;;;;;;;;;;;12.25;100.00;101276.41;5051461;28;20350;-72
2024/01/24 01:08:39;;;;;;;;;;;;;;;12.18;100.00;101269.47;5010279;28;19921;-73
2024/01/24 01:11:07;;;;;;;;;;;;;;;12.09;100.00;101267.84;5014311;28;19921;-72
2024/01/24 01:13:34;;;;;;;;;;;;;;;12.06;100.00;101283.63;5032515;28;19921;-72
2024/01/24 01:15:59;;;;;;;;;;;;;;;12.06;100.00;101264.41;5033833;28;20410;-72
2024/01/24 01:18:24;;;;;;;;;;;;;;;12.02;100.00;101275.81;5033613;28;19921;-71
2024/01/24 01:20:50;;;;;;;;;;;;;;;11.94;100.00;101274.13;5025300;28;19925;-73
2024/01/24 01:23:15;;;;;;;;;;;;;;;11.92;100.00;101254.00;5017250;28;19916;-72
2024/01/24 01:25:40;;;;;;;;;;;;;;;11.89;100.00;101262.75;5032051;28;20061;-71
2024/01/24 01:28:06;;;;;;;;;;;;;;;11.93;100.00;101268.88;5015115;28;19933;-72
2024/01/24 01:30:31;;;;;;;;;;;;;;;11.95;100.00;101268.00;5015702;28;19928;-72
2024/01/24 01:32:56;;;;;;;;;;;;;;;11.94;100.00;101260.16;5011210;28;19928;-72
2024/01/24 01:35:22;;;;;;;;;;;;;;;11.85;100.00;101260.19;5016673;28;19947;-72
2024/01/24 01:37:47;;;;;;;;;;;;;;;11.93;100.00;101248.75;5022975;28;20007;-72
2024/01/24 01:40:13;;;;;;;;;;;;;;;11.83;100.00;101267.22;5014575;28;19921;-72
2024/01/24 01:42:43;;;;;;;;;;;;;;;11.88;100.00;101273.28;5015949;28;20018;-72
2024/01/24 01:45:09;;;;;;;;;;;;;;;11.79;100.00;101280.41;5039149;28;19921;-72
2024/01/24 01:47:35;;;;;;;;;;;;;;;11.81;100.00;101261.09;5032988;28;19925;-72
2024/01/24 01:50:00;;;;;;;;;;;;;;;11.75;100.00;101276.06;5033106;28;19920;-72
2024/01/24 01:52:25;;;;;;;;;;;;;;;11.76;100.00;101276.91;5044806;28;19932;-73
2024/01/24 01:54:51;;;;;;;;;;;;;;;11.77;100.00;101265.53;5029350;28;20293;-73
2024/01/24 01:57:17;;;;;;;;;;;;;;;11.70;100.00;101276.97;5002704;28;19928;-71
2024/01/24 01:59:42;;;;;;;;;;;;;;;11.64;100.00;101293.66;5032137;28;20360;-72
2024/01/24 02:02:09;;;;;;;;;;;;;;;11.60;100.00;101270.94;5040959;28;20436;-72
2024/01/24 02:04:34;;;;;;;;;;;;;;;11.59;100.00;101274.44;5041769;28;19959;-72
2024/01/24 02:07:00;;;;;;;;;;;;;;;11.49;100.00;101251.78;5036766;28;19979;-71
2024/01/24 02:09:26;;;;;;;;;;;;;;;11.41;100.00;101260.59;5032858;28;19920;-72
2024/01/24 02:11:52;;;;;;;;;;;;;;;11.33;100.00;101262.41;5033624;28;20367;-72
2024/01/24 02:14:19;;;;;;;;;;;;;;;11.32;100.00;101258.06;5017012;28;19968;-72
2024/01/24 02:16:45;;;;;;;;;;;;;;;11.26;100.00;101250.22;5049380;28;19920;-72
2024/01/24 02:19:10;;;;;;;;;;;;;;;11.27;100.00;101251.97;5031822;28;19979;-72
2024/01/24 02:21:36;;;;;;;;;;;;;;;11.20;100.00;101263.41;5034238;28;19921;-72
2024/01/24 02:24:02;;;;;;;;;;;;;;;11.21;100.00;101262.53;5015965;28;19928;-68
2024/01/24 02:26:27;;;;;;;;;;;;;;;11.22;100.00;101249.41;5023055;28;19931;-73
2024/01/24 02:28:53;;;;;;;;;;;;;;;11.18;100.00;101252.91;5033571;28;20299;-73
2024/01/24 02:31:19;;;;;;;;;;;;;;;11.12;100.00;101258.22;5016388;28;19928;-72
2024/01/24 02:33:45;;;;;;;;;;;;;;;11.09;100.00;101253.88;5007180;28;20002;-69
2024/01/24 02:36:12;;;;;;;;;;;;;;;11.08;100.00;101246.88;5019523;28;19924;-69
2024/01/24 02:38:37;;;;;;;;;;;;;;;11.00;100.00;101253.91;5015037;28;20328;-69
2024/01/24 02:41:03;;;;;;;;;;;;;;;10.98;100.00;101249.59;5031945;28;20008;-69
2024/01/24 02:43:28;;;;;;;;;;;;;;;10.91;100.00;101265.34;5036598;28;20384;-69
2024/01/24 02:45:54;;;;;;;;;;;;;;;10.91;100.00;101275.81;5036928;28;19928;-69
2024/01/24 02:48:19;;;;;;;;;;;;;;;10.91;100.00;101280.22;5018968;28;19935;-69
2024/01/24 02:50:44;;;;;;;;;;;;;;;10.90;100.00;101268.88;5020018;28;19924;-69
2024/01/24 02:53:10;;;;;;;;;;;;;;;10.95;100.00;101268.81;5019463;28;19968;-69
2024/01/24 02:55:35;;;;;;;;;;;;;;;11.01;100.00;101276.66;5034649;28;19920;-69
2024/01/24 02:58:01;;;;;;;;;;;;;;;10.99;100.00;101272.28;5017280;28;19925;-69
2024/01/24 03:00:27;;;;;;;;;;;;;;;11.02;100.00;101265.28;5031685;28;19921;-69
2024/01/24 03:02:53;;;;;;;;;;;;;;;11.00;100.00;101242.56;5006067;28;19921;-72
2024/01/24 03:05:18;;;;;;;;;;;;;;;11.02;100.00;101262.66;5034890;28;19917;-70
2024/01/24 03:07:44;;;;;;;;;;;;;;;10.99;100.00;101251.31;5031037;28;19925;-72
2024/01/24 03:10:09;;;;;;;;;;;;;;;11.01;100.00;101253.03;5027409;28;20327;-72
2024/01/24 03:12:37;;;;;;;;;;;;;;;11.10;100.00;101249.47;5016809;28;21584;-73
2024/01/24 03:15:03;;;;;;;;;;;;;;;11.07;100.00;101266.09;5036094;28;20036;-72
2024/01/24 03:17:28;;;;;;;;;;;;;;;11.12;100.00;101246.84;5036279;28;20019;-73
2024/01/24 03:19:54;;;;;;;;;;;;;;;11.14;100.00;101245.09;5022544;28;19943;-73
2024/01/24 03:22:24;;;;;;;;;;;;;;;11.15;100.00;101252.06;5037487;28;19925;-72
2024/01/24 03:24:50;;;;;;;;;;;;;;;11.24;100.00;101273.00;5036737;28;19987;-72
2024/01/24 03:27:15;;;;;;;;;;;;;;;11.26;100.00;101286.97;5018694;28;20377;-72
2024/01/24 03:29:42;;;;;;;;;;;;;;;11.29;100.00;101292.19;5019427;28;19921;-69
2024/01/24 03:32:07;;;;;;;;;;;;;;;11.26;100.00;101289.56;5032337;28;19971;-69
2024/01/24 03:34:33;;;;;;;;;;;;;;;11.26;100.00;101313.19;5020268;28;19925;-69
2024/01/24 03:36:58;;;;;;;;;;;;;;;11.29;100.00;101317.56;5041888;28;19920;-69
2024/01/24 03:39:23;;;;;;;;;;;;;;;11.33;100.00;101327.16;5037954;28;20280;-72
2024/01/24 03:41:51;;;;;;;;;;;;;;;11.38;100.00;101326.22;5018341;28;19924;-71
2024/01/24 03:44:16;;;;;;;;;;;;;;;11.46;100.00;101335.81;5011504;28;19970;-72
2024/01/24 03:46:41;;;;;;;;;;;;;;;11.49;100.00;101309.53;5024633;28;20015;-73
2024/01/24 03:49:07;;;;;;;;;;;;;;;11.43;100.00;101340.22;5022583;28;19982;-72
2024/01/24 03:51:32;;;;;;;;;;;;;;;11.43;100.00;101342.84;5016892;28;20357;-71
2024/01/24 03:53:57;;;;;;;;;;;;;;;11.50;100.00;101340.16;5036136;28;19928;-73
2024/01/24 03:56:23;;;;;;;;;;;;;;;11.49;100.00;101348.91;5031978;28;19928;-72
2024/01/24 03:58:48;;;;;;;;;;;;;;;11.53;100.00;101335.72;5011709;28;19921;-71
2024/01/24 04:01:15;;;;;;;;;;;;;;;11.66;100.00;101341.75;5034224;28;20013;-72
2024/01/24 04:03:40;;;;;;;;;;;;;;;11.53;100.00;101348.84;5034747;28;19932;-72
2024/01/24 04:06:05;;;;;;;;;;;;;;;11.55;100.00;101333.09;5023882;28;20296;-73
2024/01/24 04:08:31;;;;;;;;;;;;;;;11.49;100.00;101335.78;5041060;28;20376;-72
2024/01/24 04:10:56;;;;;;;;;;;;;;;11.47;100.00;101329.69;5026686;28;19924;-72
2024/01/24 04:13:21;;;;;;;;;;;;;;;11.42;100.00;101324.44;5008187;28;20365;-71
2024/01/24 04:15:46;;;;;;;;;;;;;;;11.39;100.00;101301.75;5028703;28;19924;-71
2024/01/24 04:18:12;;;;;;;;;;;;;;;11.44;100.00;101314.81;5011475;28;20019;-71
2024/01/24 04:20:37;;;;;;;;;;;;;;;11.42;100.00;101325.34;5034338;28;19916;-71
2024/01/24 04:23:02;;;;;;;;;;;;;;;11.40;100.00;101334.94;5048135;28;19920;-71
2024/01/24 04:25:28;;;;;;;;;;;;;;;11.40;100.00;101327.06;5023868;28;19952;-73
2024/01/24 04:27:53;;;;;;;;;;;;;;;11.32;100.00;101363.03;5025433;28;19979;-72
2024/01/24 04:30:18;;;;;;;;;;;;;;;11.33;100.00;101367.38;5036831;28;19966;-69
2024/01/24 04:32:44;;;;;;;;;;;;;;;11.38;100.00;101397.09;5034655;28;19975;-70
2024/01/24 04:35:10;;;;;;;;;;;;;;;11.33;100.00;101384.88;5020334;28;20300;-69
2024/01/24 04:37:35;;;;;;;;;;;;;;;11.37;100.00;101379.59;5009775;28;19924;-72
2024/01/24 04:40:00;;;;;;;;;;;;;;;11.40;99.61;101376.94;5039816;28;20066;-72
2024/01/24 04:42:27;;;;;;;;;;;;;;;11.36;99.39;101385.72;5017865;28;19917;-70
2024/01/24 04:44:52;;;;;;;;;;;;;;;11.30;98.72;101387.53;5010790;28;19928;-71
2024/01/24 04:47:18;;;;;;;;;;;;;;;11.38;97.40;101398.84;5016472;28;20385;-72
2024/01/24 04:49:43;;;;;;;;;;;;;;;11.23;97.54;101407.66;5011535;28;19921;-71
2024/01/24 04:52:08;;;;;;;;;;;;;;;11.32;98.28;101380.50;5026809;28;19917;-72
2024/01/24 04:54:34;;;;;;;;;;;;;;;11.29;96.10;101393.63;5019464;28;19927;-72
2024/01/24 04:57:00;;;;;;;;;;;;;;;11.14;97.34;101389.38;5028783;28;20047;-71
2024/01/24 04:59:25;;;;;;;;;;;;;;;11.12;97.64;101419.94;5005179;28;20036;-73
2024/01/24 05:01:50;;;;;;;;;;;;;;;11.02;97.35;101385.91;5015503;28;19921;-71
2024/01/24 05:04:16;;;;;;;;;;;;;;;11.09;97.64;101369.28;5013520;28;19925;-72
2024/01/24 05:06:41;;;;;;;;;;;;;;;11.04;97.80;101415.63;5015664;28;19925;-69
2024/01/24 05:09:07;;;;;;;;;;;;;;;11.03;97.92;101400.78;5036726;28;19970;-72
2024/01/24 05:11:33;;;;;;;;;;;;;;;11.02;98.12;101412.16;5020801;28;19921;-69
2024/01/24 05:14:00;;;;;;;;;;;;;;;10.98;97.94;101423.53;5012719;28;19975;-69
2024/01/24 05:16:25;;;;;;;;;;;;;;;10.99;97.96;101429.63;5013287;28;19925;-68
2024/01/24 05:18:51;;;;;;;;;;;;;;;11.01;97.76;101443.63;5011126;28;19929;-68
2024/01/24 05:21:16;;;;;;;;;;;;;;;11.13;96.02;101414.69;5012917;28;19971;-70
2024/01/24 05:23:42;;;;;;;;;;;;;;;11.05;97.10;101456.72;5033138;28;19956;-68
2024/01/24 05:26:08;;;;;;;;;;;;;;;11.08;97.01;101451.44;5034126;28;20003;-69
2024/01/24 05:28:34;;;;;;;;;;;;;;;11.08;97.18;101476.81;5032454;28;20353;-68
2024/01/24 05:30:59;;;;;;;;;;;;;;;11.01;97.04;101454.97;5027431;28;19935;-68
2024/01/24 05:33:24;;;;;;;;;;;;;;;10.97;97.87;101447.13;5023188;28;19921;-68
2024/01/24 05:35:51;;;;;;;;;;;;;;;10.97;96.32;101468.09;5031082;28;20035;-68
2024/01/24 05:38:16;;;;;;;;;;;;;;;10.92;95.46;101426.19;5034569;28;20157;-71
2024/01/24 05:40:42;;;;;;;;;;;;;;;10.94;95.07;101442.75;5033335;28;19970;-68
2024/01/24 05:43:07;;;;;;;;;;;;;;;11.01;94.69;101465.47;5012058;28;19921;-69
2024/01/24 05:45:33;;;;;;;;;;;;;;;10.96;94.53;101445.38;5031777;28;20257;-69
2024/01/24 05:47:58;;;;;;;;;;;;;;;10.96;93.98;101441.03;5013145;28;19978;-68
2024/01/24 05:50:23;;;;;;;;;;;;;;;10.96;94.47;101441.03;5016322;28;20015;-68
2024/01/24 05:52:52;;;;;;;;;;;;;;;10.90;95.24;101459.38;5002718;28;19992;-69
2024/01/24 05:55:17;;;;;;;;;;;;;;;10.92;94.68;101444.53;4999847;28;19924;-72
2024/01/24 05:57:43;;;;;;;;;;;;;;;10.92;94.85;101465.50;5012646;28;19921;-68
2024/01/24 06:00:09;;;;;;;;;;;;;;;10.81;95.50;101446.31;5024957;28;19927;-68
2024/01/24 06:02:38;;;;;;;;;;;;;;;10.77;96.01;101447.19;5032161;28;20011;-72
2024/01/24 06:05:03;;;;;;;;;;;;;;;10.78;95.40;101467.31;5016761;28;19921;-71
2024/01/24 06:07:29;;;;;;;;;;;;;;;10.81;95.66;101447.16;5029225;28;19921;-69
2024/01/24 06:09:55;;;;;;;;;;;;;;;10.70;95.15;101517.09;5029065;28;20012;-72
2024/01/24 06:12:20;;;;;;;;;;;;;;;10.73;94.33;101512.75;5016643;28;20392;-71
2024/01/24 06:14:45;;;;;;;;;;;;;;;10.73;94.91;101502.25;5023145;28;20436;-71
2024/01/24 06:17:10;;;;;;;;;;;;;;;10.71;95.45;101508.38;5033267;28;19925;-68
2024/01/24 06:19:36;;;;;;;;;;;;;;;10.69;94.96;101531.09;5020715;28;19932;-68
2024/01/24 06:22:01;;;;;;;;;;;;;;;10.75;94.91;101528.47;5003741;28;20446;-70
2024/01/24 06:24:26;;;;;;;;;;;;;;;10.75;93.70;101529.31;5029013;28;20122;-69
2024/01/24 06:26:54;;;;;;;;;;;;;;;10.72;93.18;101567.78;5019608;28;19932;-70
2024/01/24 06:29:20;;;;;;;;;;;;;;;10.71;92.20;101564.28;5017421;28;19952;-69
2024/01/24 06:31:48;;;;;;;;;;;;;;;10.77;90.72;101571.25;5033190;28;20342;-68
2024/01/24 06:34:13;;;;;;;;;;;;;;;10.75;90.88;101589.63;5020592;28;19925;-69
2024/01/24 06:36:39;;;;;;;;;;;;;;;10.84;89.44;101585.25;5027142;28;19990;-69
2024/01/24 06:39:06;;;;;;;;;;;;;;;10.84;88.35;101585.25;5035498;28;20442;-71
2024/01/24 06:41:33;;;;;;;;;;;;;;;10.69;88.75;101605.38;5034362;28;20004;-69
2024/01/24 06:43:58;;;;;;;;;;;;;;;10.60;90.37;101609.72;5039386;28;20284;-69
2024/01/24 06:46:26;;;;;;;;;;;;;;;10.50;91.01;101620.22;5020392;28;19920;-68
2024/01/24 06:48:51;;;;;;;;;;;;;;;10.46;90.53;101625.41;5036751;28;20130;-69
2024/01/24 06:51:17;;;;;;;;;;;;;;;10.48;89.97;101626.31;5020752;28;19920;-69
2024/01/24 06:53:42;;;;;;;;;;;;;;;10.44;90.19;101625.44;5020182;28;19916;-68
2024/01/24 06:56:08;;;;;;;;;;;;;;;10.38;91.61;101644.63;5020976;28;20430;-68
2024/01/24 06:58:35;;;;;;;;;;;;;;;10.47;90.19;101661.25;5018201;28;20374;-68
2024/01/24 07:01:00;;;;;;;;;;;;;;;10.43;89.37;101656.88;5035494;28;20008;-69
2024/01/24 07:03:25;;;;;;;;;;;;;;;10.37;88.92;101676.97;5021982;28;20487;-69
2024/01/24 07:05:51;;;;;;;;;;;;;;;10.34;88.19;101661.25;5037308;28;20038;-69
2024/01/24 07:08:16;;;;;;;;;;;;;;;10.24;88.81;101648.94;5016669;28;19925;-68
2024/01/24 07:10:42;;;;;;;;;;;;;;;10.18;88.79;101654.16;5017328;28;19931;-68
2024/01/24 07:13:07;;;;;;;;;;;;;;;10.22;88.62;101669.88;5019553;28;20016;-68
2024/01/24 07:15:33;;;;;;;;;;;;;;;10.13;88.98;101682.06;5020670;28;20268;-68
2024/01/24 07:17:59;;;;;;;;;;;;;;;10.06;88.98;101673.34;5020176;28;20011;-68
2024/01/24 07:20:24;;;;;;;;;;;;;;;10.00;88.62;101679.44;5026228;28;20331;-68
2024/01/24 07:22:50;;;;;;;;;;;;;;;10.05;88.20;101685.53;5036953;28;19928;-71
2024/01/24 07:25:19;;;;;;;;;;;;;;;9.96;88.27;101705.59;5036586;28;19963;-71
2024/01/24 07:27:45;;;;;;;;;;;;;;;9.88;88.64;101692.44;5014200;28;19925;-70
2024/01/24 07:30:11;;;;;;;;;;;;;;;9.94;87.62;101696.84;5025188;28;19935;-70
2024/01/24 07:32:39;;;;;;;;;;;;;;;9.83;88.63;101694.19;5016586;28;20372;-71
2024/01/24 07:35:05;;;;;;;;;;;;;;;9.87;88.62;101701.19;5032609;28;20301;-71
2024/01/24 07:37:31;;;;;;;;;;;;;;;9.75;89.11;101714.19;5070631;28;19920;-71
2024/01/24 07:39:56;;;;;;;;;;;;;;;9.73;89.35;101723.81;5036539;28;19928;-70
2024/01/24 07:42:22;;;;;;;;;;;;;;;9.73;89.21;101713.34;5021941;28;19921;-72
2024/01/24 07:44:47;;;;;;;;;;;;;;;9.76;88.87;101702.88;5022455;28;19928;-71
2024/01/24 07:47:13;;;;;;;;;;;;;;;9.65;88.91;101708.91;5031056;28;20023;-71
2024/01/24 07:49:44;;;;;;;;;;;;;;;9.63;88.21;101731.56;5039820;28;20407;-70
2024/01/24 07:52:09;;;;;;;;;;;;;;;9.57;88.65;101723.69;5047897;28;19916;-73
2024/01/24 07:54:34;;;;;;;;;;;;;;;9.56;88.63;101734.16;5031007;28;20380;-71
2024/01/24 07:57:01;;;;;;;;;;;;;;;9.57;88.23;101743.72;5055095;28;19924;-71
2024/01/24 07:59:26;;;;;;;;;;;;;;;9.57;87.56;101739.41;5038962;28;19936;-71
2024/01/24 08:01:51;;;;;;;;;;;;;;;9.65;86.52;101728.97;5036377;28;19916;-71
2024/01/24 08:04:17;;;;;;;;;;;;;;;9.62;86.77;101744.66;5034882;28;19966;-71
2024/01/24 08:06:45;;;;;;;;;;;;;;;9.67;86.66;101735.09;5035700;28;19917;-71
2024/01/24 08:09:11;;;;;;;;;;;;;;;9.62;85.94;101748.13;5018427;28;19974;-72
2024/01/24 08:11:36;;;;;;;;;;;;;;;9.61;85.40;101743.78;5019548;28;19920;-71
2024/01/24 08:14:01;;;;;;;;;;;;;;;9.63;85.97;101756.88;5034550;28;19917;-70
2024/01/24 08:16:26;;;;;;;;;;;;;;;9.70;84.23;101771.75;5036085;28;20007;-70
2024/01/24 08:18:54;;;;;;;;;;;;;;;9.75;83.79;101785.75;5018510;28;19957;-72
2024/01/24 08:21:19;;;;;;;;;;;;;;;9.77;83.78;101796.22;5019637;28;19921;-71
2024/01/24 08:23:45;;;;;;;;;;;;;;;9.83;83.26;101791.03;5018253;28;19924;-71
2024/01/24 08:26:10;;;;;;;;;;;;;;;9.89;84.01;101773.63;5035556;28;20284;-71
2024/01/24 08:28:35;;;;;;;;;;;;;;;10.00;84.58;101781.53;5023898;28;20373;-71
2024/01/24 08:31:01;;;;;;;;;;;;;;;10.22;82.52;101787.75;5032090;28;20282;-71
2024/01/24 08:33:26;;;;;;;;;;;;;;;10.34;82.06;101799.19;5018590;28;19986;-70
2024/01/24 08:35:51;;;;;;;;;;;;;;;10.43;81.11;101790.50;5035598;28;20338;-71
2024/01/24 08:38:17;;;;;;;;;;;;;;;10.49;81.03;101790.53;5017982;28;20398;-70
2024/01/24 08:40:42;;;;;;;;;;;;;;;10.47;81.42;101803.63;5018802;28;20377;-71
2024/01/24 08:43:08;;;;;;;;;;;;;;;10.47;81.16;101827.19;5017763;28;20009;-70
2024/01/24 08:45:33;;;;;;;;;;;;;;;10.42;81.63;101846.41;5035536;28;19939;-71
2024/01/24 08:47:58;;;;;;;;;;;;;;;10.51;81.88;101844.69;5017826;28;20288;-71
2024/01/24 08:50:24;;;;;;;;;;;;;;;10.65;81.40;101844.75;5018736;28;20365;-72
2024/01/24 08:52:53;;;;;;;;;;;;;;;10.89;80.39;101858.84;5017788;28;19925;-71
2024/01/24 08:55:18;;;;;;;;;;;;;;;11.03;79.84;101845.75;5019085;28;19962;-71
2024/01/24 08:57:43;;;;;;;;;;;;;;;10.93;79.34;101857.97;5017534;28;19921;-71
2024/01/24 09:00:11;;;;;;;;;;;;;;;10.82;80.25;101841.31;5034841;28;19924;-71
2024/01/24 09:02:37;;;;;;;;;;;;;;;10.79;79.73;101847.44;5017527;28;19928;-71
2024/01/24 09:05:03;;;;;;;;;;;;;;;10.77;79.90;101841.31;5018279;28;19963;-72
2024/01/24 09:07:28;;;;;;;;;;;;;;;10.73;80.31;101874.50;5017911;28;19975;-70
2024/01/24 09:09:54;;;;;;;;;;;;;;;10.67;79.72;101865.75;5034717;28;20369;-71
2024/01/24 09:12:38;;;;;;;;;;;;;;;10.74;79.72;101886.72;5017315;28;20368;-71
2024/01/24 09:15:04;;;;;;;;;;;;;;;10.71;80.10;101902.44;5034745;28;19912;-71
2024/01/24 09:17:29;;;;;;;;;;;;;;;10.78;79.75;101865.78;5017785;28;19928;-70
2024/01/24 09:19:55;;;;;;;;;;;;;;;10.80;78.97;101864.03;5034630;28;19917;-72
2024/01/24 09:25:23;;;;;;;;;;;;;;;10.83;78.82;101878.06;5052858;28;20391;-70
2024/01/24 09:27:48;;;;;;;;;;;;;;;10.92;78.71;101892.94;5017129;28;19921;-71
2024/01/24 09:30:14;;;;;;;;;;;;;;;11.05;78.71;101901.72;5009499;28;19974;-71
2024/01/24 09:32:39;;;;;;;;;;;;;;;11.15;78.58;101906.13;5017352;28;19928;-71
2024/01/24 09:35:04;;;;;;;;;;;;;;;11.28;76.45;101909.66;5014544;28;19924;-70
2024/01/24 09:37:30;;;;;;;;;;;;;;;11.17;77.76;101940.25;5033599;28;19928;-71
2024/01/24 09:39:56;;;;;;;;;;;;;;;11.09;77.47;101935.84;5023304;28;20007;-71
2024/01/24 09:42:26;;;;;;;;;;;;;;;11.18;78.34;101949.88;5031266;28;20299;-71
2024/01/24 09:44:51;;;;;;;;;;;;;;;11.14;78.26;101969.09;5047290;28;19927;-70
2024/01/24 09:47:17;;;;;;;;;;;;;;;11.20;76.39;101962.09;5036744;28;19921;-71
2024/01/24 09:49:46;;;;;;;;;;;;;;;11.16;78.32;101948.97;5032166;28;20036;-71
2024/01/24 09:52:16;;;;;;;;;;;;;;;11.27;77.40;101937.63;5045959;28;20262;-72
2024/01/24 09:54:42;;;;;;;;;;;;;;;11.47;76.47;101952.56;5045442;28;19920;-72
2024/01/24 09:57:08;;;;;;;;;;;;;;;11.46;76.52;101949.94;5031624;28;19970;-71
2024/01/24 09:59:33;;;;;;;;;;;;;;;11.47;75.24;101955.19;5035893;28;19959;-71
2024/01/24 10:01:59;;;;;;;;;;;;;;;11.29;75.96;101961.25;5017218;28;19921;-72
2024/01/24 10:04:25;;;;;;;;;;;;;;;11.27;75.80;101955.13;5017582;28;20376;-70
2024/01/24 10:06:52;;;;;;;;;;;;;;;11.43;75.66;101974.44;5009673;28;19928;-71
2024/01/24 10:09:17;;;;;;;;;;;;;;;11.47;75.58;101977.94;5029024;28;19917;-71
2024/01/24 10:11:43;;;;;;;;;;;;;;;11.55;74.95;101978.81;5031921;28;19940;-70
2024/01/24 10:14:08;;;;;;;;;;;;;;;11.73;75.08;101992.00;5008391;28;19943;-70
2024/01/24 10:16:34;;;;;;;;;;;;;;;12.28;72.96;101987.69;5017487;28;19925;-68
2024/01/24 10:18:59;;;;;;;;;;;;;;;13.15;68.93;102009.44;5033127;28;19972;-71
2024/01/24 10:21:25;;;;;;;;;;;;;;;13.37;69.47;102010.22;5017393;28;19921;-71
2024/01/24 10:23:52;;;;;;;;;;;;;;;13.42;69.71;102015.47;5030974;28;20356;-71
2024/01/24 10:26:18;;;;;;;;;;;;;;;13.37;68.49;102012.88;5023446;28;19917;-71
2024/01/24 10:28:46;;;;;;;;;;;;;;;13.32;67.65;102020.75;5050579;28;19962;-68
2024/01/24 10:31:12;;;;;;;;;;;;;;;13.62;68.29;102012.72;5033803;28;19917;-71
2024/01/24 10:33:37;;;;;;;;;;;;;;;13.57;68.59;102020.66;5008318;28;19928;-71
2024/01/24 10:36:03;;;;;;;;;;;;;;;13.40;68.01;102014.63;4997896;28;19917;-71
2024/01/24 10:38:33;;;;;;;;;;;;;;;13.10;68.41;102019.09;5025487;28;20266;-72
2024/01/24 10:41:00;;;;;;;;;;;;;;;12.79;69.52;102029.72;5021032;28;20327;-71
2024/01/24 10:43:25;;;;;;;;;;;;;;;12.47;70.23;102051.66;5032183;28;20361;-72
2024/01/24 10:45:51;;;;;;;;;;;;;;;12.08;70.79;102049.00;5047632;28;19940;-71
2024/01/24 10:48:17;;;;;;;;;;;;;;;11.92;71.93;102057.69;5036134;28;20384;-72
2024/01/24 10:50:43;;;;;;;;;;;;;;;11.60;72.22;102047.97;5037031;28;19959;-71
2024/01/24 10:53:08;;;;;;;;;;;;;;;11.46;73.98;102039.19;5035371;28;19917;-71
2024/01/24 10:55:34;;;;;;;;;;;;;;;11.35;74.12;102047.91;5019783;28;19924;-70
2024/01/24 10:57:59;;;;;;;;;;;;;;;11.40;75.04;102054.03;4996216;28;19921;-70
2024/01/24 11:00:25;;;;;;;;;;;;;;;11.41;73.68;102053.16;4997477;28;19933;-70
2024/01/24 11:02:52;;;;;;;;;;;;;;;11.14;73.65;102047.78;5014877;28;19917;-71
2024/01/24 11:05:29;;;;;;;;;;;;;;;11.11;73.34;102064.38;5019713;28;19917;-70
2024/01/24 11:07:57;;;;;;;;;;;;;;;11.03;74.91;102074.84;5035970;28;19932;-71
2024/01/24 11:10:35;;;;;;;;;;;;;;;11.01;74.02;102073.94;5037056;28;19917;-70
2024/01/24 11:13:02;;;;;;;;;;;;;;;10.85;74.96;102067.72;5032045;28;20424;-70
2024/01/24 11:15:28;;;;;;;;;;;;;;;10.75;75.66;102079.88;5017415;28;19921;-70
2024/01/24 11:18:12;;;;;;;;;;;;;;;10.72;75.11;102081.63;5019960;28;19916;-71
2024/01/24 11:20:44;;;;;;;;;;;;;;;10.63;75.17;102090.28;5036171;28;19912;-70
2024/01/24 11:23:28;;;;;;;;;;;;;;;10.63;75.85;102092.91;5021357;28;20308;-71
2024/01/24 11:25:53;;;;;;;;;;;;;;;10.54;75.53;102088.47;5031901;28;20369;-70
2024/01/24 11:30:54;;;;;;;;;;;;;;;10.40;75.85;102105.78;5143594;22;19932;-68
2024/01/24 11:35:55;;;;;;;;;;;;;;;10.37;75.76;102113.63;5057824;23;19933;-68
2024/01/24 11:38:22;;;;;;;;;;;;;;;10.38;76.18;102116.25;5021407;28;19921;-69
2024/01/24 11:40:50;;;;;;;;;;;;;;;10.31;76.18;102114.41;5047247;28;19939;-70
2024/01/24 11:43:32;;;;;;;;;;;;;;;10.29;76.39;102120.53;5040626;28;19923;-71
2024/01/24 11:46:07;;;;;;;;;;;;;;;10.32;75.58;102128.41;5042122;28;19920;-70
2024/01/24 11:48:34;;;;;;;;;;;;;;;10.34;75.32;102148.56;5035211;28;20043;-71
2024/01/24 11:51:09;;;;;;;;;;;;;;;10.32;76.21;102139.75;5032868;28;20333;-70
2024/01/24 11:53:35;;;;;;;;;;;;;;;10.39;75.33;102146.00;5051783;28;19967;-70
2024/01/24 11:56:04;;;;;;;;;;;;;;;10.47;74.59;102160.03;5036189;28;19921;-69
2024/01/24 11:58:30;;;;;;;;;;;;;;;10.66;74.37;102147.09;5047999;28;20014;-71
2024/01/24 12:00:56;;;;;;;;;;;;;;;10.77;74.28;102153.31;5060864;28;20019;-70
2024/01/24 12:03:21;;;;;;;;;;;;;;;10.86;73.90;102168.25;5038309;28;19921;-71
2024/01/24 12:05:47;;;;;;;;;;;;;;;11.12;74.03;102154.44;5036741;28;20030;-71
2024/01/24 12:08:13;;;;;;;;;;;;;;;11.50;71.66;102162.56;5056766;28;20010;-72
2024/01/24 12:10:39;;;;;;;;;;;;;;;11.63;69.85;102165.28;5078758;28;19917;-70
2024/01/24 12:13:05;;;;;;;;;;;;;;;11.51;70.46;102172.22;5063560;28;19913;-72
2024/01/24 12:15:32;;;;;;;;;;;;;;;11.41;69.63;102178.28;5052516;28;19921;-71
2024/01/24 12:18:12;;;;;;;;;;;;;;;11.38;70.77;102183.50;5056938;28;19955;-68
2024/01/24 12:20:37;;;;;;;;;;;;;;;11.37;70.21;102203.59;5035696;28;19999;-70
2024/01/24 12:23:04;;;;;;;;;;;;;;;11.43;70.98;102198.41;5050896;28;20015;-71
2024/01/24 12:25:30;;;;;;;;;;;;;;;11.82;69.66;102184.59;5052271;28;20416;-68
2024/01/24 12:27:56;;;;;;;;;;;;;;;11.76;68.04;102188.94;5051852;28;20019;-68
2024/01/24 12:30:22;;;;;;;;;;;;;;;11.64;68.06;102193.25;5048749;28;19925;-68
2024/01/24 12:32:48;;;;;;;;;;;;;;;11.50;69.14;102191.44;5034719;28;19963;-70
2024/01/24 12:35:15;;;;;;;;;;;;;;;11.43;69.47;102194.91;5021513;28;21367;-70